Station: Karlovy Vary, ICAO: LKKV, Synop: Synop: 11414,
Koordinaten: 5012'00''N 01255'00''E, Hoehe: 603m, Entfernung: 33.54km
2018/04/22 14:00
LKKV 221400Z 29006KT 220V330 CAVOK 23/08 Q1015


Station: Hof, ICAO: EDQM, Synop: Synop: 10685,
Koordinaten: 5019'00''N 01153'00''E, Hoehe: 567m, Entfernung: 54.25km
2018/04/22 13:50
EDQM 221350Z 19005KT 140V260 CAVOK 24/06 Q1015


Station: ALTENBURG-NOBITZ, ICAO: EDAC, Synop: ,
Koordinaten: 50 59 N 012 30 E, Hoehe: 195m, Entfernung: 61.29km
2018/04/22 13:50
EDAC 221350Z VRB01KT CAVOK 25/09 Q1014


Station: Bayreuth, ICAO: EDQD, Synop: Synop: 10677,
Koordinaten: 4959'00''N 01138'00''E, Hoehe: 488m, Entfernung: 86.72km
2007/07/01 15:50
EDQD 011550Z 01011KT CAVOK 23/15 Q1012


Station: Grafenwoehr, ICAO: ETIC, Synop: Synop: 10687,
Koordinaten: 4942'00''N 01157'00''E, Hoehe: 415m, Entfernung: 95.05km
2018/04/22 13:56
ETIC 221356Z AUTO 27005KT 9999 CLR 26/09 A2994 RMK AO2 SLP130 T02580092 $


Station: PLZEN LINE, ICAO: LKLN, Synop: ,
Koordinaten: 49 41 N 013 16 E, Hoehe: 362m, Entfernung: 95.49km
2018/04/22 14:00
LKLN 221400Z AUTO VRB04KT 9999 FEW079 25/09 Q1015


mehr Wetter
WetterInfo - adds.pl 2.6.003 DL3EL © 2004-2017 [374280]